Time;durP1;ratioP1;P1;durP2;ratioP2;P2;SDS_P1;SDS_P2;PMS_P1;PMS_P2;Temp;Humidity;BMP_temperature;BMP_pressure;BME280_temperature;BME280_humidity;BME280_pressure;Samples;Min_cycle;Max_cycle;Signal;HPM_P1;HPM_P2
2023/12/05 00:01:19;;;;;;;;;;;0.60;99.90;;;;;;5132832;27;19919;-73
2023/12/05 00:03:45;;;;;;;;;;;0.60;99.90;;;;;;5129285;27;19923;-73
2023/12/05 00:06:10;;;;;;;;;;;0.60;99.90;;;;;;5133281;27;19919;-73
2023/12/05 00:08:36;;;;;;;;;;;0.60;99.90;;;;;;5141952;27;19923;-73
2023/12/05 00:11:05;;;;;;;;;;;0.50;99.90;;;;;;5145312;27;19990;-72
2023/12/05 00:13:31;;;;;;;;;;;0.50;99.90;;;;;;5120796;27;20055;-73
2023/12/05 00:15:56;;;;;;;;;;;0.50;99.90;;;;;;5121906;27;20718;-73
2023/12/05 00:18:22;;;;;;;;;;;0.50;99.90;;;;;;5132317;27;19919;-73
2023/12/05 00:20:47;;;;;;;;;;;0.50;99.90;;;;;;5131283;27;19923;-72
2023/12/05 00:23:13;;;;;;;;;;;0.90;99.90;;;;;;5139045;27;19983;-73
2023/12/05 00:25:38;;;;;;;;;;;0.50;99.90;;;;;;5116821;27;19923;-73
2023/12/05 00:28:04;;;;;;;;;;;0.50;99.90;;;;;;5126565;27;20301;-74
2023/12/05 00:30:29;;;;;;;;;;;0.40;99.90;;;;;;5117000;27;19919;-73
2023/12/05 00:32:55;;;;;;;;;;;0.40;99.90;;;;;;5127195;27;19915;-73
2023/12/05 00:35:21;;;;;;;;;;;0.40;99.90;;;;;;5137529;27;19967;-73
2023/12/05 00:37:46;;;;;;;;;;;0.40;99.90;;;;;;5131245;27;19919;-72
2023/12/05 00:40:12;;;;;;;;;;;0.40;99.90;;;;;;5116716;27;19959;-72
2023/12/05 00:42:38;;;;;;;;;;;0.40;99.90;;;;;;5114142;27;19925;-72
2023/12/05 00:45:03;;;;;;;;;;;0.40;99.90;;;;;;5120935;27;19923;-73
2023/12/05 00:47:29;;;;;;;;;;;0.40;99.90;;;;;;5133160;27;19963;-73
2023/12/05 00:49:55;;;;;;;;;;;0.40;99.90;;;;;;5126919;27;20283;-72
2023/12/05 00:52:20;;;;;;;;;;;0.40;99.90;;;;;;5116476;27;20370;-71
2023/12/05 00:54:46;;;;;;;;;;;0.40;99.90;;;;;;5116168;27;19977;-73
2023/12/05 00:57:11;;;;;;;;;;;0.30;99.90;;;;;;5143894;27;19958;-73
2023/12/05 00:59:37;;;;;;;;;;;0.40;99.90;;;;;;5113241;27;20328;-73
2023/12/05 01:02:02;;;;;;;;;;;0.80;99.90;;;;;;5123021;27;20350;-73
2023/12/05 01:04:28;;;;;;;;;;;0.40;99.90;;;;;;5119722;27;19919;-72
2023/12/05 01:06:53;;;;;;;;;;;0.40;99.90;;;;;;5130218;27;19919;-73
2023/12/05 01:09:19;;;;;;;;;;;0.50;99.90;;;;;;5120042;27;19940;-72
2023/12/05 01:11:44;;;;;;;;;;;0.70;99.90;;;;;;5112389;27;19968;-73
2023/12/05 01:14:10;;;;;;;;;;;0.40;99.90;;;;;;5120020;27;19919;-72
2023/12/05 01:16:40;;;;;;;;;;;0.40;99.90;;;;;;5127920;27;20021;-73
2023/12/05 01:19:06;;;;;;;;;;;0.40;99.90;;;;;;5142319;27;20425;-73
2023/12/05 01:21:31;;;;;;;;;;;0.40;99.90;;;;;;5139443;27;20060;-72
2023/12/05 01:23:57;;;;;;;;;;;0.40;99.90;;;;;;5129655;27;19922;-72
2023/12/05 01:26:22;;;;;;;;;;;0.40;99.90;;;;;;5113058;27;20010;-72
2023/12/05 01:28:48;;;;;;;;;;;0.40;99.90;;;;;;5129326;27;19990;-73
2023/12/05 01:31:14;;;;;;;;;;;0.40;99.90;;;;;;5125374;27;19966;-73
2023/12/05 01:33:39;;;;;;;;;;;0.90;99.90;;;;;;5128590;27;19927;-72
2023/12/05 01:36:09;;;;;;;;;;;0.40;99.90;;;;;;5139895;27;20006;-72
2023/12/05 01:38:34;;;;;;;;;;;0.40;99.90;;;;;;5119450;27;19915;-73
2023/12/05 01:41:00;;;;;;;;;;;0.40;99.90;;;;;;5147718;27;20017;-72
2023/12/05 01:43:25;;;;;;;;;;;0.40;99.90;;;;;;5129482;27;19971;-72
2023/12/05 01:45:51;;;;;;;;;;;0.40;99.90;;;;;;5147036;27;19926;-72
2023/12/05 01:48:17;;;;;;;;;;;0.40;99.90;;;;;;5127915;27;19926;-73
2023/12/05 01:50:43;;;;;;;;;;;0.40;99.90;;;;;;5114921;27;19926;-73
2023/12/05 01:53:09;;;;;;;;;;;0.40;99.90;;;;;;5132177;27;20388;-72
2023/12/05 01:55:35;;;;;;;;;;;0.40;99.90;;;;;;5147944;27;19929;-73
2023/12/05 01:58:01;;;;;;;;;;;0.40;99.90;;;;;;5130556;27;19966;-73
2023/12/05 02:00:27;;;;;;;;;;;0.40;99.90;;;;;;5129006;27;19981;-72
2023/12/05 02:02:54;;;;;;;;;;;0.40;99.90;;;;;;5130841;27;19922;-72
2023/12/05 02:05:20;;;;;;;;;;;0.40;99.90;;;;;;5130183;27;19959;-72
2023/12/05 02:07:46;;;;;;;;;;;0.30;99.90;;;;;;5130218;27;20294;-72
2023/12/05 02:10:11;;;;;;;;;;;0.50;99.90;;;;;;5114002;27;19927;-73
2023/12/05 02:12:40;;;;;;;;;;;0.30;99.90;;;;;;5147232;27;19919;-72
2023/12/05 02:15:06;;;;;;;;;;;0.30;99.90;;;;;;5140861;27;19924;-73
2023/12/05 02:17:36;;;;;;;;;;;0.30;99.90;;;;;;5129537;27;20382;-72
2023/12/05 02:20:12;;;;;;;;;;;0.40;99.90;;;;;;5129388;27;19922;-73
2023/12/05 02:22:37;;;;;;;;;;;0.40;99.90;;;;;;5129431;27;19919;-72
2023/12/05 02:25:26;;;;;;;;;;;0.40;99.90;;;;;;5138425;27;19950;-72
2023/12/05 02:27:52;;;;;;;;;;;0.40;99.90;;;;;;5114761;27;20468;-72
2023/12/05 02:30:18;;;;;;;;;;;0.30;99.90;;;;;;5123023;27;20136;-72
2023/12/05 02:32:43;;;;;;;;;;;0.30;99.90;;;;;;5122787;28;19922;-73
2023/12/05 02:35:10;;;;;;;;;;;0.70;99.90;;;;;;5140462;27;19919;-73
2023/12/05 02:37:43;;;;;;;;;;;0.40;99.90;;;;;;5120188;28;19915;-72
2023/12/05 02:40:10;;;;;;;;;;;0.40;99.90;;;;;;5145376;27;19922;-73
2023/12/05 02:42:36;;;;;;;;;;;0.30;99.90;;;;;;5117686;28;19926;-73
2023/12/05 02:45:04;;;;;;;;;;;0.70;99.90;;;;;;5126444;27;19931;-72
2023/12/05 02:47:30;;;;;;;;;;;0.30;99.90;;;;;;5119542;27;19919;-72
2023/12/05 02:49:56;;;;;;;;;;;0.30;99.90;;;;;;5123714;27;19926;-72
2023/12/05 02:52:21;;;;;;;;;;;0.40;99.90;;;;;;5120707;27;19919;-73
2023/12/05 02:54:47;;;;;;;;;;;0.90;99.90;;;;;;5138251;27;20465;-73
2023/12/05 02:57:12;;;;;;;;;;;0.30;99.90;;;;;;5146275;27;19919;-73
2023/12/05 02:59:38;;;;;;;;;;;0.30;99.90;;;;;;5128894;27;19919;-73
2023/12/05 03:02:03;;;;;;;;;;;0.40;99.90;;;;;;5128544;27;19927;-72
2023/12/05 03:04:30;;;;;;;;;;;0.90;99.90;;;;;;5127365;27;19958;-73
2023/12/05 03:06:55;;;;;;;;;;;0.40;99.90;;;;;;5117186;27;19926;-71
2023/12/05 03:09:21;;;;;;;;;;;0.70;99.90;;;;;;5148522;27;19915;-73
2023/12/05 03:11:47;;;;;;;;;;;0.40;99.90;;;;;;5115817;27;20744;-72
2023/12/05 03:14:13;;;;;;;;;;;0.70;99.90;;;;;;5120295;27;20359;-72
2023/12/05 03:16:38;;;;;;;;;;;0.40;99.90;;;;;;5120058;27;20007;-73
2023/12/05 03:19:04;;;;;;;;;;;0.30;99.90;;;;;;5142557;27;19987;-73
2023/12/05 03:21:30;;;;;;;;;;;0.30;99.90;;;;;;5141563;27;19920;-72
2023/12/05 03:23:55;;;;;;;;;;;1.00;99.90;;;;;;5144654;27;19925;-72
2023/12/05 03:26:21;;;;;;;;;;;0.30;99.90;;;;;;5128767;27;19971;-73
2023/12/05 03:28:48;;;;;;;;;;;0.30;99.90;;;;;;5125239;27;19926;-72
2023/12/05 03:31:13;;;;;;;;;;;0.30;99.90;;;;;;5130414;27;20521;-73
2023/12/05 03:33:39;;;;;;;;;;;0.60;99.90;;;;;;5116814;27;19919;-71
2023/12/05 03:36:05;;;;;;;;;;;0.30;99.90;;;;;;5133973;27;19922;-72
2023/12/05 03:38:30;;;;;;;;;;;0.30;99.90;;;;;;5118371;27;19919;-72
2023/12/05 03:40:56;;;;;;;;;;;0.30;99.90;;;;;;5125426;27;20361;-72
2023/12/05 03:43:22;;;;;;;;;;;0.30;99.90;;;;;;5133118;27;20459;-72
2023/12/05 03:45:48;;;;;;;;;;;0.30;99.90;;;;;;5131701;27;20421;-73
2023/12/05 03:48:13;;;;;;;;;;;0.50;99.90;;;;;;5133062;27;20303;-73
2023/12/05 03:50:39;;;;;;;;;;;0.30;99.90;;;;;;5131735;27;19919;-72
2023/12/05 03:53:04;;;;;;;;;;;0.40;99.90;;;;;;5131530;27;19968;-72
2023/12/05 03:55:31;;;;;;;;;;;0.40;99.90;;;;;;5130839;27;19929;-73
2023/12/05 03:57:57;;;;;;;;;;;0.80;99.90;;;;;;5148101;27;20847;-72
2023/12/05 04:00:22;;;;;;;;;;;0.30;99.90;;;;;;5126337;27;19964;-73
2023/12/05 04:02:48;;;;;;;;;;;0.30;99.90;;;;;;5129985;27;19920;-73
2023/12/05 04:05:13;;;;;;;;;;;0.30;99.90;;;;;;5132099;27;20336;-72
2023/12/05 04:07:40;;;;;;;;;;;0.30;99.90;;;;;;5130263;27;20010;-72
2023/12/05 04:10:06;;;;;;;;;;;0.30;99.90;;;;;;5131602;27;20469;-71
2023/12/05 04:12:32;;;;;;;;;;;0.30;99.90;;;;;;5143465;27;19919;-73
2023/12/05 04:14:57;;;;;;;;;;;0.30;99.90;;;;;;5120452;27;19945;-73
2023/12/05 04:17:23;;;;;;;;;;;0.30;99.90;;;;;;5120705;27;19970;-74
2023/12/05 04:19:48;;;;;;;;;;;0.30;99.90;;;;;;5125679;27;20018;-73
2023/12/05 04:22:14;;;;;;;;;;;0.30;99.90;;;;;;5131869;27;19989;-73
2023/12/05 04:24:40;;;;;;;;;;;0.30;99.90;;;;;;5123452;27;19919;-73
2023/12/05 04:27:05;;;;;;;;;;;0.30;99.90;;;;;;5147885;27;19963;-73
2023/12/05 04:29:31;;;;;;;;;;;0.30;99.90;;;;;;5131641;27;19972;-73
2023/12/05 04:31:58;;;;;;;;;;;0.30;99.90;;;;;;5128186;27;20421;-73
2023/12/05 04:34:23;;;;;;;;;;;0.30;99.90;;;;;;5124167;27;20386;-73
2023/12/05 04:36:50;;;;;;;;;;;0.50;99.90;;;;;;5132367;27;19995;-73
2023/12/05 04:39:16;;;;;;;;;;;0.30;99.90;;;;;;5133790;27;19919;-73
2023/12/05 04:41:42;;;;;;;;;;;0.30;99.90;;;;;;5123966;27;19927;-72
2023/12/05 04:44:07;;;;;;;;;;;0.30;99.90;;;;;;5151445;27;19926;-73
2023/12/05 04:46:35;;;;;;;;;;;0.30;99.90;;;;;;5133528;27;19926;-73
2023/12/05 04:49:01;;;;;;;;;;;0.30;99.90;;;;;;5151232;27;19950;-73
2023/12/05 04:51:26;;;;;;;;;;;0.60;99.90;;;;;;5130995;27;20246;-74
2023/12/05 04:53:52;;;;;;;;;;;0.30;99.90;;;;;;5131888;27;19949;-74
2023/12/05 04:56:18;;;;;;;;;;;0.60;99.90;;;;;;5132152;27;19918;-74
2023/12/05 04:58:43;;;;;;;;;;;0.30;99.90;;;;;;5131527;27;20359;-74
2023/12/05 05:01:09;;;;;;;;;;;0.30;99.90;;;;;;5130298;27;20383;-72
2023/12/05 05:03:34;;;;;;;;;;;0.30;99.90;;;;;;5141591;27;19927;-73
2023/12/05 05:06:00;;;;;;;;;;;0.30;99.90;;;;;;5139540;27;19926;-73
2023/12/05 05:08:25;;;;;;;;;;;0.30;99.90;;;;;;5130676;27;19941;-72
2023/12/05 05:10:51;;;;;;;;;;;0.30;99.90;;;;;;5141708;27;20002;-74
2023/12/05 05:13:16;;;;;;;;;;;0.40;99.90;;;;;;5142959;27;19963;-73
2023/12/05 05:15:42;;;;;;;;;;;0.40;99.90;;;;;;5137401;27;19926;-73
2023/12/05 05:18:07;;;;;;;;;;;0.60;99.90;;;;;;5124305;27;19919;-73
2023/12/05 05:20:33;;;;;;;;;;;0.40;99.90;;;;;;5146298;27;19919;-73
2023/12/05 05:22:58;;;;;;;;;;;0.30;99.90;;;;;;5127577;27;19930;-73
2023/12/05 05:25:24;;;;;;;;;;;0.30;99.90;;;;;;5152360;27;19972;-73
2023/12/05 05:27:49;;;;;;;;;;;0.30;99.90;;;;;;5147138;27;19919;-73
2023/12/05 05:30:15;;;;;;;;;;;0.60;99.90;;;;;;5133350;27;19915;-73
2023/12/05 05:32:41;;;;;;;;;;;0.90;99.90;;;;;;5142129;27;20293;-73
2023/12/05 05:35:06;;;;;;;;;;;0.40;99.90;;;;;;5134381;27;20381;-73
2023/12/05 05:37:32;;;;;;;;;;;0.30;99.90;;;;;;5118595;27;20027;-73
2023/12/05 05:39:57;;;;;;;;;;;0.30;99.90;;;;;;5145912;27;19927;-73
2023/12/05 05:42:23;;;;;;;;;;;0.30;99.90;;;;;;5124783;27;19923;-74
2023/12/05 05:44:48;;;;;;;;;;;0.30;99.90;;;;;;5125144;27;19919;-73
2023/12/05 05:47:14;;;;;;;;;;;0.30;99.90;;;;;;5120978;27;20553;-73
2023/12/05 05:49:39;;;;;;;;;;;0.40;99.90;;;;;;5121330;27;19969;-73
2023/12/05 05:52:05;;;;;;;;;;;0.30;99.90;;;;;;5125548;27;19919;-73
2023/12/05 05:54:30;;;;;;;;;;;0.30;99.90;;;;;;5127199;27;19983;-73
2023/12/05 05:56:56;;;;;;;;;;;0.30;99.90;;;;;;5129270;27;19963;-73
2023/12/05 05:59:22;;;;;;;;;;;0.30;99.90;;;;;;5122496;27;20491;-73
2023/12/05 06:01:47;;;;;;;;;;;0.30;99.90;;;;;;5120777;27;20426;-74
2023/12/05 06:04:13;;;;;;;;;;;0.30;99.90;;;;;;5146327;27;19919;-73
2023/12/05 06:06:39;;;;;;;;;;;0.30;99.90;;;;;;5116643;27;19919;-72
2023/12/05 06:09:05;;;;;;;;;;;0.30;99.90;;;;;;5141617;27;20374;-73
2023/12/05 06:11:31;;;;;;;;;;;0.30;99.90;;;;;;5128661;27;20282;-73
2023/12/05 06:13:56;;;;;;;;;;;0.30;99.90;;;;;;5121010;27;19918;-73
2023/12/05 06:16:22;;;;;;;;;;;0.30;99.90;;;;;;5135650;27;19915;-72
2023/12/05 06:18:48;;;;;;;;;;;0.30;99.90;;;;;;5120578;27;19970;-73
2023/12/05 06:21:13;;;;;;;;;;;0.40;99.90;;;;;;5128362;27;19922;-74
2023/12/05 06:23:39;;;;;;;;;;;0.70;99.90;;;;;;5121556;28;19933;-73
2023/12/05 06:26:05;;;;;;;;;;;0.30;99.90;;;;;;5127257;27;19919;-72
2023/12/05 06:28:30;;;;;;;;;;;0.40;99.90;;;;;;5125512;28;19923;-73
2023/12/05 06:30:56;;;;;;;;;;;0.40;99.90;;;;;;5132950;27;19923;-72
2023/12/05 06:33:22;;;;;;;;;;;0.30;99.90;;;;;;5123803;27;20373;-74
2023/12/05 06:35:48;;;;;;;;;;;-0.70;99.90;;;;;;5129915;27;19925;-73
2023/12/05 06:38:14;;;;;;;;;;;0.30;99.90;;;;;;5122072;27;19923;-73
2023/12/05 06:40:40;;;;;;;;;;;0.30;99.90;;;;;;5140001;27;19930;-73
2023/12/05 06:43:06;;;;;;;;;;;0.30;99.90;;;;;;5124474;27;19926;-73
2023/12/05 06:45:34;;;;;;;;;;;0.30;99.90;;;;;;5130081;27;19999;-73
2023/12/05 06:48:00;;;;;;;;;;;0.30;99.90;;;;;;5144463;27;20423;-72
2023/12/05 06:50:29;;;;;;;;;;;0.30;99.90;;;;;;5134786;27;19923;-73
2023/12/05 06:52:57;;;;;;;;;;;0.30;99.90;;;;;;5116084;27;19923;-73
2023/12/05 06:55:23;;;;;;;;;;;0.30;99.90;;;;;;5120916;27;20476;-74
2023/12/05 06:57:48;;;;;;;;;;;0.30;99.90;;;;;;5124525;27;19918;-73
2023/12/05 07:00:14;;;;;;;;;;;0.90;99.90;;;;;;5151290;27;19967;-73
2023/12/05 07:02:39;;;;;;;;;;;0.30;99.90;;;;;;5128333;27;19920;-73
2023/12/05 07:05:05;;;;;;;;;;;0.30;99.90;;;;;;5131784;27;19919;-73
2023/12/05 07:07:31;;;;;;;;;;;0.30;99.90;;;;;;5115836;27;19919;-72
2023/12/05 07:09:56;;;;;;;;;;;0.40;99.90;;;;;;5134257;27;19941;-73
2023/12/05 07:12:22;;;;;;;;;;;0.30;99.90;;;;;;5132265;27;19979;-73
2023/12/05 07:14:47;;;;;;;;;;;0.30;99.90;;;;;;5121254;27;20274;-72
2023/12/05 07:17:13;;;;;;;;;;;0.30;99.90;;;;;;5132665;27;19946;-73
2023/12/05 07:19:38;;;;;;;;;;;0.30;99.90;;;;;;5150447;27;19919;-73
2023/12/05 07:22:04;;;;;;;;;;;0.30;99.90;;;;;;5144174;27;20592;-72
2023/12/05 07:24:29;;;;;;;;;;;0.30;99.90;;;;;;5124835;27;19969;-73
2023/12/05 07:26:56;;;;;;;;;;;0.30;99.90;;;;;;5128378;27;19972;-72
2023/12/05 07:29:21;;;;;;;;;;;0.30;99.90;;;;;;5118202;27;19919;-72
2023/12/05 07:31:47;;;;;;;;;;;0.30;99.90;;;;;;5130864;27;20372;-73
2023/12/05 07:34:12;;;;;;;;;;;0.30;99.90;;;;;;5122180;27;19920;-73
2023/12/05 07:36:41;;;;;;;;;;;0.30;99.90;;;;;;5119529;27;19919;-73
2023/12/05 07:39:08;;;;;;;;;;;0.30;99.90;;;;;;5154394;27;19944;-73
2023/12/05 07:41:34;;;;;;;;;;;0.30;99.90;;;;;;5126023;27;20057;-73
2023/12/05 07:43:59;;;;;;;;;;;0.30;99.90;;;;;;5127016;27;19942;-73
2023/12/05 07:46:25;;;;;;;;;;;0.30;99.90;;;;;;5131848;27;19942;-73
2023/12/05 07:48:50;;;;;;;;;;;0.30;99.90;;;;;;5134702;27;20293;-73
2023/12/05 07:51:16;;;;;;;;;;;0.30;99.90;;;;;;5123039;27;20001;-73
2023/12/05 07:53:45;;;;;;;;;;;0.30;99.90;;;;;;5116041;27;20259;-72
2023/12/05 07:56:11;;;;;;;;;;;0.40;99.90;;;;;;5138945;27;19919;-72
2023/12/05 07:58:36;;;;;;;;;;;0.40;99.90;;;;;;5140613;27;19929;-72
2023/12/05 08:01:02;;;;;;;;;;;0.40;99.90;;;;;;5137375;27;19919;-72
2023/12/05 08:03:28;;;;;;;;;;;0.40;99.90;;;;;;5141272;27;19919;-73
2023/12/05 08:05:54;;;;;;;;;;;0.70;99.90;;;;;;5140877;27;19927;-72
2023/12/05 08:08:20;;;;;;;;;;;0.40;99.90;;;;;;5138077;27;20290;-73
2023/12/05 08:10:46;;;;;;;;;;;0.40;99.90;;;;;;5135524;27;19919;-72
2023/12/05 08:13:12;;;;;;;;;;;0.40;99.90;;;;;;5122947;27;19919;-72
2023/12/05 08:15:38;;;;;;;;;;;0.40;99.90;;;;;;5124704;27;19925;-73
2023/12/05 08:18:03;;;;;;;;;;;0.40;99.90;;;;;;5149307;27;20297;-73
2023/12/05 08:20:29;;;;;;;;;;;0.40;99.90;;;;;;5123013;27;20371;-72
2023/12/05 08:22:54;;;;;;;;;;;0.40;99.90;;;;;;5113635;27;20002;-72
2023/12/05 08:25:20;;;;;;;;;;;0.70;99.90;;;;;;5125707;27;19919;-72
2023/12/05 08:27:45;;;;;;;;;;;0.50;99.90;;;;;;5134055;27;19926;-75
2023/12/05 08:30:11;;;;;;;;;;;0.70;99.90;;;;;;5149489;27;20286;-72
2023/12/05 08:32:37;;;;;;;;;;;0.50;99.90;;;;;;5151583;27;19963;-72
2023/12/05 08:35:03;;;;;;;;;;;0.80;99.90;;;;;;5131509;27;19927;-73
2023/12/05 08:37:31;;;;;;;;;;;0.50;99.90;;;;;;5121653;27;19919;-73
2023/12/05 08:39:57;;;;;;;;;;;0.60;99.90;;;;;;5117822;27;20432;-72
2023/12/05 08:42:22;;;;;;;;;;;0.60;99.90;;;;;;5137845;27;19919;-71
2023/12/05 08:44:48;;;;;;;;;;;0.60;99.90;;;;;;5151954;27;19918;-73
2023/12/05 08:47:13;;;;;;;;;;;0.60;99.90;;;;;;5132960;27;19936;-72
2023/12/05 08:49:39;;;;;;;;;;;0.60;99.90;;;;;;5123829;27;20446;-72
2023/12/05 08:52:05;;;;;;;;;;;0.70;99.90;;;;;;5124203;27;19923;-72
2023/12/05 08:54:30;;;;;;;;;;;0.70;99.90;;;;;;5124330;27;20316;-72
2023/12/05 08:56:56;;;;;;;;;;;0.70;99.90;;;;;;5130906;27;19926;-72
2023/12/05 08:59:21;;;;;;;;;;;1.60;99.90;;;;;;5153329;27;19918;-72
2023/12/05 09:01:47;;;;;;;;;;;0.70;99.90;;;;;;5152651;27;20263;-72
2023/12/05 09:04:13;;;;;;;;;;;1.00;99.90;;;;;;5158215;27;20459;-72
2023/12/05 09:06:38;;;;;;;;;;;0.70;99.90;;;;;;5151498;27;19926;-72
2023/12/05 09:09:04;;;;;;;;;;;0.70;99.90;;;;;;5131507;27;19978;-72
2023/12/05 09:11:29;;;;;;;;;;;0.70;99.90;;;;;;5126489;27;19919;-73
2023/12/05 09:13:55;;;;;;;;;;;0.70;99.90;;;;;;5133012;27;19919;-71
2023/12/05 09:16:43;;;;;;;;;;;0.80;99.90;;;;;;5163489;27;19930;-72
2023/12/05 09:19:08;;;;;;;;;;;1.20;99.90;;;;;;5116542;27;19927;-72
2023/12/05 09:21:35;;;;;;;;;;;0.80;99.90;;;;;;5109256;28;19930;-72
2023/12/05 09:24:00;;;;;;;;;;;1.90;99.90;;;;;;5124949;27;19950;-73
2023/12/05 09:26:26;;;;;;;;;;;0.90;99.90;;;;;;5124082;28;19920;-72
2023/12/05 09:28:51;;;;;;;;;;;0.80;99.90;;;;;;5108661;28;19930;-73
2023/12/05 09:31:17;;;;;;;;;;;0.80;99.90;;;;;;5123030;27;19923;-73
2023/12/05 09:33:42;;;;;;;;;;;0.80;99.90;;;;;;5131360;27;20010;-73
2023/12/05 09:36:08;;;;;;;;;;;0.80;99.90;;;;;;5126578;28;20033;-72
2023/12/05 09:38:34;;;;;;;;;;;0.80;99.90;;;;;;5122085;27;19945;-72
2023/12/05 09:40:59;;;;;;;;;;;0.80;99.90;;;;;;5119659;28;19954;-73
2023/12/05 09:43:26;;;;;;;;;;;0.90;99.90;;;;;;5121174;27;19931;-72
2023/12/05 09:45:57;;;;;;;;;;;0.90;99.90;;;;;;5124508;28;20011;-74
2023/12/05 09:48:26;;;;;;;;;;;1.60;99.90;;;;;;5121744;27;19932;-73
2023/12/05 09:50:51;;;;;;;;;;;1.00;99.90;;;;;;5117880;28;19986;-73
2023/12/05 09:53:17;;;;;;;;;;;1.00;99.90;;;;;;5126202;28;20379;-73
2023/12/05 09:55:44;;;;;;;;;;;1.00;99.90;;;;;;5135534;27;19931;-72
2023/12/05 09:58:11;;;;;;;;;;;1.00;99.90;;;;;;5146847;27;19969;-73
2023/12/05 10:00:36;;;;;;;;;;;1.00;99.90;;;;;;5128796;27;20370;-73
2023/12/05 10:03:04;;;;;;;;;;;1.00;99.90;;;;;;5129344;27;19930;-71
2023/12/05 10:05:32;;;;;;;;;;;1.00;99.90;;;;;;5111495;27;19981;-72
2023/12/05 10:07:58;;;;;;;;;;;1.10;99.90;;;;;;5113810;28;19970;-71
2023/12/05 10:10:24;;;;;;;;;;;1.10;99.90;;;;;;5114364;28;20378;-74
2023/12/05 10:12:50;;;;;;;;;;;1.10;99.90;;;;;;5125820;27;19931;-74
2023/12/05 10:15:18;;;;;;;;;;;1.20;99.90;;;;;;5118105;27;20333;-73
2023/12/05 10:17:45;;;;;;;;;;;1.20;99.90;;;;;;5118571;27;20010;-72
2023/12/05 10:20:13;;;;;;;;;;;1.30;99.90;;;;;;5109952;27;19931;-73
2023/12/05 10:22:39;;;;;;;;;;;1.30;99.90;;;;;;5109622;27;19942;-73
2023/12/05 10:25:08;;;;;;;;;;;1.30;99.90;;;;;;5113561;27;19937;-72
2023/12/05 10:27:34;;;;;;;;;;;1.40;99.90;;;;;;5127180;27;20010;-72
2023/12/05 10:29:59;;;;;;;;;;;1.40;99.90;;;;;;5094122;28;20365;-72
2023/12/05 10:32:25;;;;;;;;;;;1.40;99.90;;;;;;5101030;27;20260;-72
2023/12/05 10:34:52;;;;;;;;;;;1.70;99.90;;;;;;5114436;27;19923;-72
2023/12/05 10:37:21;;;;;;;;;;;1.70;99.90;;;;;;5105492;27;20542;-73
2023/12/05 10:39:48;;;;;;;;;;;1.60;99.90;;;;;;5096666;27;20391;-73
2023/12/05 10:42:13;;;;;;;;;;;1.50;99.90;;;;;;5112282;27;19989;-73
2023/12/05 10:44:40;;;;;;;;;;;1.50;99.90;;;;;;5113738;27;19932;-73
2023/12/05 10:47:06;;;;;;;;;;;1.50;99.90;;;;;;5115692;27;19974;-72
2023/12/05 10:49:32;;;;;;;;;;;1.50;99.90;;;;;;5099932;28;20027;-73
2023/12/05 10:51:58;;;;;;;;;;;1.50;99.90;;;;;;5109494;28;20027;-73
2023/12/05 10:54:24;;;;;;;;;;;1.50;99.90;;;;;;5099970;27;20367;-72
2023/12/05 10:56:59;;;;;;;;;;;1.50;99.90;;;;;;5099317;27;20381;-73
2023/12/05 10:59:26;;;;;;;;;;;1.50;99.90;;;;;;5113509;27;19953;-73
2023/12/05 11:01:52;;;;;;;;;;;1.50;99.90;;;;;;5113746;27;19931;-74
2023/12/05 11:04:18;;;;;;;;;;;1.80;99.90;;;;;;5094695;27;19924;-73
2023/12/05 11:06:46;;;;;;;;;;;1.50;99.90;;;;;;5091120;28;19924;-73
2023/12/05 11:09:12;;;;;;;;;;;1.50;99.90;;;;;;5094556;27;19927;-75
2023/12/05 11:11:40;;;;;;;;;;;1.50;99.90;;;;;;5121544;27;19935;-73
2023/12/05 11:14:09;;;;;;;;;;;1.50;99.90;;;;;;5115869;27;19947;-73
2023/12/05 11:16:37;;;;;;;;;;;1.70;99.90;;;;;;5093368;28;19935;-73
2023/12/05 11:19:17;;;;;;;;;;;1.40;99.90;;;;;;5127773;27;19934;-73
2023/12/05 11:21:45;;;;;;;;;;;1.40;99.90;;;;;;5120893;27;20054;-73
2023/12/05 11:24:29;;;;;;;;;;;1.40;99.90;;;;;;5109416;28;19923;-73
2023/12/05 11:27:01;;;;;;;;;;;1.30;99.90;;;;;;5098963;27;19927;-73
2023/12/05 11:29:30;;;;;;;;;;;1.40;99.90;;;;;;5127715;27;19928;-74
2023/12/05 11:32:08;;;;;;;;;;;1.40;99.90;;;;;;5099893;28;19924;-73
2023/12/05 11:34:39;;;;;;;;;;;1.40;99.90;;;;;;5109445;28;19924;-72
2023/12/05 11:37:15;;;;;;;;;;;1.40;99.90;;;;;;5115655;27;19927;-73
2023/12/05 11:39:41;;;;;;;;;;;1.40;99.90;;;;;;5094839;27;20500;-73
2023/12/05 11:42:08;;;;;;;;;;;1.40;99.90;;;;;;5099325;27;20014;-73
2023/12/05 11:44:37;;;;;;;;;;;1.40;99.90;;;;;;5099554;27;19971;-72
2023/12/05 11:47:06;;;;;;;;;;;1.40;99.90;;;;;;5092394;28;20290;-73
2023/12/05 11:50:02;;;;;;;;;;;1.80;99.90;;;;;;5092644;28;20019;-72
2023/12/05 11:52:28;;;;;;;;;;;1.50;99.90;;;;;;5095875;27;19938;-72
2023/12/05 11:54:53;;;;;;;;;;;1.50;99.90;;;;;;5102006;27;20075;-72
2023/12/05 11:57:23;;;;;;;;;;;2.30;99.90;;;;;;5096237;28;19931;-72
2023/12/05 11:59:50;;;;;;;;;;;1.40;99.90;;;;;;5109175;28;19927;-73
2023/12/05 12:02:17;;;;;;;;;;;1.40;99.90;;;;;;5098252;27;19956;-72
2023/12/05 12:04:44;;;;;;;;;;;1.70;99.90;;;;;;5104694;27;19926;-72
2023/12/05 12:07:10;;;;;;;;;;;1.40;99.90;;;;;;5100831;28;19924;-72
2023/12/05 12:09:37;;;;;;;;;;;1.60;99.90;;;;;;5111241;27;19924;-72
2023/12/05 12:12:03;;;;;;;;;;;1.40;99.90;;;;;;5092981;27;19919;-72
2023/12/05 12:14:29;;;;;;;;;;;1.40;99.90;;;;;;5103601;28;19930;-72
2023/12/05 12:16:56;;;;;;;;;;;1.40;99.90;;;;;;5111109;27;19931;-72
2023/12/05 12:19:22;;;;;;;;;;;1.40;99.90;;;;;;5111171;27;19932;-73
2023/12/05 12:21:48;;;;;;;;;;;1.30;99.90;;;;;;5113917;27;19942;-73
2023/12/05 12:24:18;;;;;;;;;;;1.30;99.90;;;;;;5092282;28;20398;-72
2023/12/05 12:26:57;;;;;;;;;;;1.30;99.90;;;;;;5089696;28;19928;-73
2023/12/05 12:29:23;;;;;;;;;;;1.30;99.90;;;;;;5095887;28;20124;-73
2023/12/05 12:31:50;;;;;;;;;;;1.30;99.90;;;;;;5108565;27;19928;-73
2023/12/05 12:34:22;;;;;;;;;;;1.30;99.90;;;;;;5097716;27;19924;-73
2023/12/05 12:36:48;;;;;;;;;;;1.30;99.90;;;;;;5100375;27;19954;-73
2023/12/05 12:39:18;;;;;;;;;;;1.20;99.90;;;;;;5107608;28;19928;-73
2023/12/05 12:41:47;;;;;;;;;;;1.20;99.90;;;;;;5105207;28;20132;-73
2023/12/05 12:44:13;;;;;;;;;;;1.20;99.90;;;;;;5106012;28;20292;-73
2023/12/05 12:46:42;;;;;;;;;;;1.30;99.90;;;;;;5122475;27;20125;-73
2023/12/05 12:49:10;;;;;;;;;;;1.20;99.90;;;;;;5107155;28;19923;-74
2023/12/05 12:51:38;;;;;;;;;;;1.20;99.90;;;;;;5108916;28;20246;-74
2023/12/05 12:54:05;;;;;;;;;;;1.20;99.90;;;;;;5111916;27;20027;-73
2023/12/05 12:56:32;;;;;;;;;;;1.20;99.90;;;;;;5108545;27;19923;-74
2023/12/05 12:58:58;;;;;;;;;;;1.20;99.90;;;;;;5110065;28;20385;-73
2023/12/05 13:01:25;;;;;;;;;;;1.90;99.90;;;;;;5094635;28;20387;-73
2023/12/05 13:03:52;;;;;;;;;;;1.20;99.90;;;;;;5103460;28;19924;-73
2023/12/05 13:06:18;;;;;;;;;;;2.00;99.90;;;;;;5106140;28;19923;-73
2023/12/05 13:08:43;;;;;;;;;;;1.20;99.90;;;;;;5096102;28;19928;-74
2023/12/05 13:11:09;;;;;;;;;;;1.20;99.90;;;;;;5109286;28;20010;-74
2023/12/05 13:13:35;;;;;;;;;;;1.20;99.90;;;;;;5093827;28;19931;-74
2023/12/05 13:16:01;;;;;;;;;;;1.20;99.90;;;;;;5097719;28;20029;-74
2023/12/05 13:18:39;;;;;;;;;;;1.20;99.90;;;;;;5108340;28;19995;-74
2023/12/05 13:21:05;;;;;;;;;;;1.20;99.90;;;;;;5137924;27;19980;-73
2023/12/05 13:23:30;;;;;;;;;;;1.20;99.90;;;;;;5150196;27;19927;-74
2023/12/05 13:25:56;;;;;;;;;;;2.30;99.90;;;;;;5102474;28;19984;-74
2023/12/05 13:28:23;;;;;;;;;;;1.10;99.90;;;;;;5106104;28;19974;-74
2023/12/05 13:30:48;;;;;;;;;;;1.70;99.90;;;;;;5105297;28;20021;-74
2023/12/05 13:33:15;;;;;;;;;;;1.20;99.90;;;;;;5128607;28;20365;-74
2023/12/05 13:35:41;;;;;;;;;;;1.10;99.90;;;;;;5093053;28;19931;-74
2023/12/05 13:38:09;;;;;;;;;;;1.20;99.90;;;;;;5105122;28;20282;-74
2023/12/05 13:40:36;;;;;;;;;;;1.30;99.90;;;;;;5093625;28;20556;-74
2023/12/05 13:43:01;;;;;;;;;;;1.20;99.90;;;;;;5101785;28;20283;-74
2023/12/05 13:45:27;;;;;;;;;;;1.20;99.90;;;;;;5093111;28;19928;-73
2023/12/05 13:47:52;;;;;;;;;;;1.20;99.90;;;;;;5109992;28;19973;-73
2023/12/05 13:50:19;;;;;;;;;;;1.30;99.90;;;;;;5090658;28;20021;-74
2023/12/05 13:52:45;;;;;;;;;;;1.20;99.90;;;;;;5095494;28;19928;-74
2023/12/05 13:55:11;;;;;;;;;;;1.20;99.90;;;;;;5103353;28;19947;-73
2023/12/05 13:57:36;;;;;;;;;;;1.10;99.90;;;;;;5120740;28;20367;-73
2023/12/05 14:00:03;;;;;;;;;;;0.60;99.90;;;;;;5108813;28;20582;-74
2023/12/05 14:02:28;;;;;;;;;;;1.10;99.90;;;;;;5100977;28;19924;-74
2023/12/05 14:04:54;;;;;;;;;;;1.10;99.90;;;;;;5105614;28;19928;-74
2023/12/05 14:07:20;;;;;;;;;;;1.10;99.90;;;;;;5111891;28;19924;-73
2023/12/05 14:09:46;;;;;;;;;;;1.10;99.90;;;;;;5112074;27;20321;-73
2023/12/05 14:12:11;;;;;;;;;;;1.20;99.90;;;;;;5115744;27;19932;-75
2023/12/05 14:14:38;;;;;;;;;;;1.00;99.90;;;;;;5105564;28;19928;-74
2023/12/05 14:17:04;;;;;;;;;;;1.00;99.90;;;;;;5100709;27;19938;-74
2023/12/05 14:19:31;;;;;;;;;;;1.00;99.90;;;;;;5105533;28;19920;-75
2023/12/05 14:21:57;;;;;;;;;;;0.90;99.90;;;;;;5108888;27;19931;-75
2023/12/05 14:24:22;;;;;;;;;;;1.20;99.90;;;;;;5114389;27;19923;-75
2023/12/05 14:26:48;;;;;;;;;;;0.90;99.90;;;;;;5112765;27;19925;-75